Time;durP1;ratioP1;P1;durP2;ratioP2;P2;SDS_P1;SDS_P2;PMS_P1;PMS_P2;Temp;Humidity;BMP_temperature;BMP_pressure;BME280_temperature;BME280_humidity;BME280_pressure;Samples;Min_cycle;Max_cycle;Signal;HPM_P1;HPM_P2
2022/12/15 00:38:57;;;;;;;1.00;0.90;;;2.20;99.90;;;;;;4180662;28;20461;-64
2022/12/15 00:41:01;;;;;;;1.00;0.90;;;2.20;99.90;;;;;;4180712;28;20456;-65
2022/12/15 00:43:03;;;;;;;1.00;0.90;;;2.20;99.90;;;;;;4178670;28;20196;-65
2022/12/15 00:45:04;;;;;;;0.87;0.80;;;2.20;99.90;;;;;;4180846;28;20443;-64
2022/12/15 00:47:05;;;;;;;1.00;0.90;;;2.20;99.90;;;;;;4180849;28;20890;-65
2022/12/15 00:50:50;;;;;;;1.30;0.97;;;2.20;99.90;;;;;;4194895;28;20548;-64
2022/12/15 01:22:05;;;;;;;1.70;1.40;;;1.90;99.90;;;;;;4180187;28;20415;-66
2022/12/15 01:24:06;;;;;;;3.37;1.63;;;1.90;99.90;;;;;;4178707;28;20557;-66
2022/12/15 01:26:07;;;;;;;2.10;1.77;;;1.70;99.90;;;;;;4178846;28;20430;-66
2022/12/15 01:28:08;;;;;;;1.63;1.50;;;1.70;99.90;;;;;;4180004;28;20190;-66
2022/12/15 01:30:13;;;;;;;1.93;1.57;;;1.80;99.90;;;;;;4180083;28;20427;-65
2022/12/15 01:32:14;;;;;;;2.23;1.90;;;1.90;99.90;;;;;;4178401;28;20193;-64
2022/12/15 01:34:16;;;;;;;2.50;1.90;;;2.10;99.90;;;;;;4180240;28;20443;-64
2022/12/15 01:36:16;;;;;;;4.00;1.90;;;2.10;99.90;;;;;;4180056;28;20903;-64
2022/12/15 01:38:17;;;;;;;3.23;1.80;;;2.10;99.90;;;;;;4179598;28;20465;-65
2022/12/15 01:42:39;;;;;;;3.53;2.83;;;2.00;99.90;;;;;;4178325;28;20282;-67
2022/12/15 01:44:39;;;;;;;2.37;2.10;;;1.90;99.90;;;;;;4180027;28;20449;-65
2022/12/15 01:46:40;;;;;;;3.33;2.47;;;1.90;99.90;;;;;;4179778;28;20179;-65
2022/12/15 01:48:59;;;;;;;3.83;2.83;;;1.50;99.90;;;;;;4178409;28;20638;-65
2022/12/15 01:51:05;;;;;;;4.70;3.50;;;1.40;99.90;;;;;;4178204;28;20727;-65
2022/12/15 01:53:06;;;;;;;4.10;3.13;;;1.40;99.90;;;;;;4177724;28;20422;-65
2022/12/15 01:55:08;;;;;;;5.10;4.00;;;1.50;99.90;;;;;;4178379;28;20439;-65
2022/12/15 01:57:14;;;;;;;3.87;3.37;;;1.60;99.90;;;;;;4161750;28;20591;-64
2022/12/15 01:59:20;;;;;;;3.33;2.83;;;1.50;99.90;;;;;;4194581;28;20458;-65
2022/12/15 02:01:21;;;;;;;4.20;3.10;;;1.60;99.90;;;;;;4178128;28;20413;-65
2022/12/15 02:03:22;;;;;;;4.13;3.13;;;1.50;99.90;;;;;;4177529;28;20487;-65
2022/12/15 02:05:24;;;;;;;4.70;3.50;;;1.60;99.90;;;;;;4179450;28;20461;-65
2022/12/15 02:07:25;;;;;;;5.07;3.57;;;1.60;99.90;;;;;;4177813;28;21031;-65
2022/12/15 02:09:27;;;;;;;3.50;3.00;;;1.60;99.90;;;;;;4177995;28;20452;-64
2022/12/15 02:12:04;;;;;;;4.63;3.40;;;1.60;99.90;;;;;;4177733;28;20450;-65
2022/12/15 02:14:08;;;;;;;5.07;3.37;;;1.70;99.90;;;;;;4178577;28;20955;-64
2022/12/15 02:16:31;;;;;;;4.47;3.20;;;1.80;99.90;;;;;;4177945;28;21255;-65
2022/12/15 02:18:58;;;;;;;5.03;2.97;;;1.80;99.90;;;;;;4162530;28;20453;-65
2022/12/15 02:21:19;;;;;;;4.47;3.17;;;1.80;99.90;;;;;;4177935;28;20806;-65
2022/12/15 02:23:45;;;;;;;4.77;3.20;;;1.90;99.90;;;;;;4177115;28;20413;-65
2022/12/15 02:26:10;;;;;;;4.20;3.33;;;1.90;99.90;;;;;;4179054;28;20933;-65
2022/12/15 02:28:31;;;;;;;3.20;2.60;;;1.90;99.90;;;;;;4178883;28;20502;-65
2022/12/15 02:31:48;;;;;;;3.60;2.83;;;1.90;99.90;;;;;;4177730;28;20890;-65
2022/12/15 02:33:24;;;;;;;2.90;2.50;;;1.70;99.90;;;;;;4176772;28;20461;-65
2022/12/15 02:35:39;;;;;;;4.00;2.97;;;1.70;99.90;;;;;;4177633;28;20411;-65
2022/12/15 02:37:40;;;;;;;3.57;2.43;;;1.60;99.90;;;;;;4180061;28;20420;-65
2022/12/15 02:39:42;;;;;;;3.90;2.80;;;1.60;99.90;;;;;;4193718;28;20424;-65
2022/12/15 02:41:46;;;;;;;3.70;2.60;;;1.70;99.90;;;;;;4195175;28;20448;-65
2022/12/15 02:43:46;;;;;;;3.93;2.97;;;1.80;99.90;;;;;;4193291;28;20566;-65
2022/12/15 02:46:30;;;;;;;4.53;3.33;;;1.80;99.90;;;;;;4195072;28;20816;-65
2022/12/15 02:49:08;;;;;;;3.53;2.60;;;1.80;99.90;;;;;;4188247;28;20205;-65
2022/12/15 02:51:44;;;;;;;3.73;2.60;;;1.70;99.90;;;;;;4194682;28;20472;-65
2022/12/15 02:53:58;;;;;;;3.83;3.07;;;1.70;99.90;;;;;;4193758;28;20437;-64
2022/12/15 02:56:16;;;;;;;3.17;2.30;;;1.70;99.90;;;;;;4193854;28;20495;-65
2022/12/15 02:59:09;;;;;;;2.20;2.00;;;1.80;99.90;;;;;;4195085;28;20596;-65
2022/12/15 03:01:27;;;;;;;2.50;1.90;;;1.80;99.90;;;;;;4180648;28;20419;-65
2022/12/15 03:03:29;;;;;;;2.33;2.10;;;1.80;99.90;;;;;;4177991;28;20421;-65
2022/12/15 03:05:31;;;;;;;2.37;2.03;;;1.70;99.90;;;;;;4177389;28;20431;-65
2022/12/15 03:07:31;;;;;;;2.50;2.10;;;1.60;99.90;;;;;;4174650;28;20461;-64
2022/12/15 03:09:32;;;;;;;2.57;2.10;;;1.50;99.90;;;;;;4184748;28;20443;-65
2022/12/15 03:11:34;;;;;;;2.63;2.27;;;1.60;99.90;;;;;;4193471;28;20192;-65
2022/12/15 03:13:35;;;;;;;2.37;2.03;;;1.70;99.90;;;;;;4192775;28;20220;-65
2022/12/15 03:15:36;;;;;;;2.53;2.30;;;1.70;99.90;;;;;;4194976;28;20513;-65
2022/12/15 03:17:37;;;;;;;2.80;2.13;;;1.50;99.90;;;;;;4194913;28;20180;-65
2022/12/15 03:19:37;;;;;;;2.27;1.80;;;1.50;99.90;;;;;;4193706;28;20180;-65
2022/12/15 03:21:38;;;;;;;3.03;2.27;;;1.60;99.90;;;;;;4194902;28;20796;-65
2022/12/15 03:23:39;;;;;;;2.87;2.30;;;1.60;99.90;;;;;;4192527;28;20198;-65
2022/12/15 03:25:39;;;;;;;1.80;1.60;;;1.50;99.90;;;;;;4194655;28;20238;-65
2022/12/15 03:27:40;;;;;;;2.50;1.70;;;1.50;99.90;;;;;;4195170;28;20181;-65
2022/12/15 03:29:41;;;;;;;2.73;2.10;;;1.50;99.90;;;;;;4195134;28;20182;-65
2022/12/15 03:31:43;;;;;;;2.07;1.87;;;1.60;99.90;;;;;;4194945;28;20183;-65
2022/12/15 03:33:43;;;;;;;2.70;2.10;;;1.50;99.90;;;;;;4194339;28;20585;-65
2022/12/15 03:35:44;;;;;;;2.70;1.90;;;1.50;99.90;;;;;;4194827;28;20491;-65
2022/12/15 03:37:45;;;;;;;2.40;2.00;;;1.60;99.90;;;;;;4194786;28;20186;-65
2022/12/15 03:39:46;;;;;;;2.50;1.97;;;1.60;99.90;;;;;;4194849;28;20180;-65
2022/12/15 03:41:47;;;;;;;2.87;2.23;;;1.50;99.90;;;;;;4194778;28;20609;-65
2022/12/15 03:43:47;;;;;;;2.83;2.20;;;1.50;99.90;;;;;;4194125;28;20447;-64
2022/12/15 03:45:48;;;;;;;2.70;2.20;;;1.50;99.90;;;;;;4194735;28;20179;-65
2022/12/15 03:47:50;;;;;;;2.90;2.07;;;1.70;99.90;;;;;;4193579;28;20312;-65
2022/12/15 03:49:50;;;;;;;2.47;2.10;;;1.80;99.90;;;;;;4193650;28;20184;-65
2022/12/15 03:51:52;;;;;;;2.10;1.83;;;1.70;99.90;;;;;;4194871;28;20429;-65
2022/12/15 03:53:53;;;;;;;2.60;2.40;;;1.40;99.90;;;;;;4193154;28;20201;-64
2022/12/15 03:55:54;;;;;;;3.53;2.27;;;1.40;99.90;;;;;;4195205;28;20423;-65
2022/12/15 03:57:54;;;;;;;4.03;2.67;;;1.40;99.90;;;;;;4194613;28;20218;-65
2022/12/15 03:59:55;;;;;;;3.30;2.60;;;1.40;99.90;;;;;;4194967;28;20176;-65
2022/12/15 04:01:56;;;;;;;4.87;3.20;;;1.50;99.90;;;;;;4195189;28;20179;-65
2022/12/15 04:03:57;;;;;;;3.20;2.40;;;1.40;99.90;;;;;;4197286;28;20278;-65
2022/12/15 04:05:58;;;;;;;3.80;2.87;;;1.50;99.90;;;;;;4196519;28;20179;-65
2022/12/15 04:08:00;;;;;;;3.20;2.53;;;1.50;99.90;;;;;;4197615;28;20800;-65
2022/12/15 04:10:00;;;;;;;3.97;2.90;;;1.40;99.90;;;;;;4197676;28;20206;-65
2022/12/15 04:12:02;;;;;;;5.03;3.67;;;1.40;99.90;;;;;;4197547;28;20467;-65
2022/12/15 04:14:03;;;;;;;4.93;3.63;;;1.30;99.90;;;;;;4197398;28;20196;-65
2022/12/15 04:16:04;;;;;;;4.60;3.60;;;1.40;99.90;;;;;;4197884;28;20439;-65
2022/12/15 04:18:11;;;;;;;4.27;3.03;;;1.50;99.90;;;;;;4197766;28;20247;-65
2022/12/15 04:20:12;;;;;;;9.43;5.70;;;1.50;99.90;;;;;;4196735;28;21231;-65
2022/12/15 04:22:12;;;;;;;12.60;7.70;;;1.40;99.90;;;;;;4197523;28;20423;-65
2022/12/15 05:31:53;;;;;;;6.30;3.70;;;1.20;99.90;;;;;;4196296;28;20867;-65
2022/12/15 05:33:55;;;;;;;5.93;3.93;;;1.20;99.90;;;;;;4195830;28;20485;-65
2022/12/15 05:35:59;;;;;;;7.20;4.93;;;1.10;99.90;;;;;;4195192;28;20431;-64
2022/12/15 05:38:00;;;;;;;4.77;3.53;;;1.20;99.90;;;;;;4196410;28;20837;-64
2022/12/15 05:40:00;;;;;;;5.57;3.80;;;1.10;99.90;;;;;;4196329;28;20426;-65
2022/12/15 05:42:02;;;;;;;6.13;4.10;;;1.00;99.90;;;;;;4194983;28;20183;-65
2022/12/15 05:44:02;;;;;;;7.57;4.67;;;1.00;99.90;;;;;;4195691;28;20276;-65
2022/12/15 05:46:04;;;;;;;5.23;3.57;;;1.00;99.90;;;;;;4196102;28;20472;-65
2022/12/15 05:48:05;;;;;;;4.33;3.27;;;1.00;99.90;;;;;;4194830;28;20206;-65
2022/12/15 05:50:07;;;;;;;5.37;3.67;;;1.00;99.90;;;;;;4195957;28;20423;-65
2022/12/15 05:52:08;;;;;;;5.30;3.50;;;1.10;99.90;;;;;;4195607;28;20846;-65
2022/12/15 05:54:14;;;;;;;4.87;3.43;;;1.20;99.90;;;;;;4195714;28;20530;-65
2022/12/15 05:56:15;;;;;;;4.37;2.90;;;1.20;99.90;;;;;;4196376;28;20169;-65
2022/12/15 05:58:15;;;;;;;4.37;3.20;;;1.20;99.90;;;;;;4195992;28;20524;-65
2022/12/15 06:00:16;;;;;;;5.83;3.57;;;1.00;99.90;;;;;;4196000;28;21105;-65
2022/12/15 06:02:17;;;;;;;6.77;4.60;;;1.10;99.90;;;;;;4195308;28;20267;-65
2022/12/15 06:04:18;;;;;;;5.30;3.60;;;1.20;99.90;;;;;;4195591;28;20565;-66
2022/12/15 06:06:19;;;;;;;4.37;3.07;;;1.20;99.90;;;;;;4194461;28;20293;-65
2022/12/15 06:08:20;;;;;;;5.67;3.70;;;1.10;99.90;;;;;;4195333;28;20202;-65
2022/12/15 06:10:20;;;;;;;4.87;3.53;;;1.20;99.90;;;;;;4195673;28;20422;-66
2022/12/15 06:12:21;;;;;;;7.10;4.00;;;1.10;99.90;;;;;;4195043;28;20194;-65
2022/12/15 06:14:22;;;;;;;6.23;3.67;;;1.20;99.90;;;;;;4195199;28;20230;-65
2022/12/15 06:16:26;;;;;;;6.10;4.13;;;1.20;99.90;;;;;;4195615;28;20212;-65
2022/12/15 06:18:30;;;;;;;6.30;3.67;;;1.10;99.90;;;;;;4194192;28;20914;-65
2022/12/15 06:20:31;;;;;;;5.90;4.03;;;1.00;99.90;;;;;;4195625;28;20433;-65
2022/12/15 06:22:32;;;;;;;5.93;4.67;;;1.10;99.90;;;;;;4194843;28;20804;-65
2022/12/15 06:24:32;;;;;;;8.03;5.03;;;1.20;99.90;;;;;;4193227;28;20286;-65
2022/12/15 06:26:36;;;;;;;8.57;5.60;;;1.10;99.90;;;;;;4195275;28;20183;-64
2022/12/15 06:28:38;;;;;;;6.73;4.33;;;0.80;99.90;;;;;;4194025;28;20218;-64
2022/12/15 06:30:38;;;;;;;5.13;3.97;;;0.90;99.90;;;;;;4195228;28;20782;-64
2022/12/15 06:32:39;;;;;;;6.70;4.67;;;0.80;99.90;;;;;;4194631;28;20438;-65
2022/12/15 06:34:40;;;;;;;6.83;4.77;;;0.90;99.90;;;;;;4195088;28;20678;-65
2022/12/15 06:36:41;;;;;;;6.30;4.30;;;1.00;99.90;;;;;;4195164;28;20709;-64
2022/12/15 06:38:42;;;;;;;5.47;3.90;;;1.00;99.90;;;;;;4195129;28;20223;-65
2022/12/15 06:40:43;;;;;;;7.13;4.40;;;0.90;99.90;;;;;;4195167;28;20462;-64
2022/12/15 06:42:44;;;;;;;5.60;3.93;;;0.80;99.90;;;;;;4194538;28;20485;-64
2022/12/15 06:44:44;;;;;;;7.90;5.10;;;1.00;99.90;;;;;;4195215;28;20210;-65
2022/12/15 06:46:45;;;;;;;9.30;5.13;;;0.90;99.90;;;;;;4195224;28;20177;-64
2022/12/15 06:48:46;;;;;;;8.00;4.73;;;0.90;99.90;;;;;;4193745;28;20228;-65
2022/12/15 06:50:47;;;;;;;8.37;5.10;;;0.70;99.90;;;;;;4195095;28;20217;-65
2022/12/15 06:52:48;;;;;;;9.10;5.67;;;0.80;99.90;;;;;;4194772;28;20480;-66
2022/12/15 06:54:48;;;;;;;11.60;6.77;;;0.90;99.90;;;;;;4195412;28;20678;-64
2022/12/15 06:56:49;;;;;;;10.63;6.03;;;0.90;99.90;;;;;;4195106;28;20688;-66
2022/12/15 06:58:52;;;;;;;10.10;6.90;;;1.00;99.90;;;;;;4192342;28;20211;-66
2022/12/15 07:00:53;;;;;;;12.07;7.07;;;1.00;99.90;;;;;;4179256;28;20215;-66
2022/12/15 07:02:53;;;;;;;10.00;6.50;;;0.90;99.90;;;;;;4177830;28;20463;-66
2022/12/15 07:04:54;;;;;;;10.00;5.93;;;0.80;99.90;;;;;;4178497;28;20239;-66
2022/12/15 07:06:55;;;;;;;12.00;7.57;;;0.80;99.90;;;;;;4178365;28;20186;-66
2022/12/15 07:08:56;;;;;;;12.37;7.07;;;0.80;99.90;;;;;;4178287;28;20168;-66
2022/12/15 07:10:57;;;;;;;16.37;8.70;;;0.90;99.90;;;;;;4178193;28;20485;-66
2022/12/15 07:12:57;;;;;;;12.63;7.40;;;0.90;99.90;;;;;;4177821;28;20176;-66
2022/12/15 07:14:58;;;;;;;12.83;7.70;;;0.70;99.90;;;;;;4184977;28;20231;-67
2022/12/15 07:16:59;;;;;;;11.63;6.57;;;0.70;99.90;;;;;;4194823;28;20324;-66
2022/12/15 07:18:59;;;;;;;12.23;7.00;;;0.80;99.90;;;;;;4193371;28;20218;-67
2022/12/15 07:21:06;;;;;;;13.03;7.30;;;0.80;99.90;;;;;;4194663;28;20892;-66
2022/12/15 07:23:08;;;;;;;11.73;6.80;;;0.90;99.90;;;;;;4192867;28;20177;-66
2022/12/15 07:25:09;;;;;;;12.00;6.93;;;0.90;99.90;;;;;;4176702;28;20588;-66
2022/12/15 07:27:10;;;;;;;12.63;7.57;;;1.00;99.90;;;;;;4194663;28;20856;-66
2022/12/15 07:29:10;;;;;;;11.60;6.63;;;1.00;99.90;;;;;;4194694;28;20179;-66
2022/12/15 07:31:11;;;;;;;11.17;6.57;;;1.00;99.90;;;;;;4194730;28;20718;-66
2022/12/15 07:33:12;;;;;;;15.03;7.83;;;1.00;99.90;;;;;;4193941;28;20189;-66
2022/12/15 07:35:12;;;;;;;11.63;7.47;;;1.00;99.90;;;;;;4194573;28;20187;-66
2022/12/15 07:37:14;;;;;;;12.07;7.37;;;0.90;99.90;;;;;;4197364;28;20196;-66
2022/12/15 07:39:15;;;;;;;12.60;8.73;;;1.00;99.90;;;;;;4198026;28;20200;-66
2022/12/15 07:41:16;;;;;;;12.67;8.07;;;1.10;99.90;;;;;;4198013;28;20488;-65
2022/12/15 07:43:17;;;;;;;15.17;8.43;;;1.00;99.90;;;;;;4196899;28;20176;-66
2022/12/15 07:45:18;;;;;;;14.17;8.20;;;0.80;99.90;;;;;;4198042;28;20427;-66
2022/12/15 07:47:18;;;;;;;12.83;8.00;;;0.80;99.90;;;;;;4198004;28;20182;-65
2022/12/15 07:49:19;;;;;;;10.73;6.97;;;0.90;99.90;;;;;;4196486;28;20276;-66
2022/12/15 07:51:20;;;;;;;14.67;8.23;;;1.00;99.90;;;;;;4196462;28;20188;-65
2022/12/15 07:53:21;;;;;;;14.03;7.47;;;0.70;99.90;;;;;;4197122;28;20491;-65
2022/12/15 07:55:21;;;;;;;18.50;11.50;;;0.80;99.90;;;;;;4196580;28;20189;-66
2022/12/15 07:57:22;;;;;;;15.13;9.37;;;0.80;99.90;;;;;;4198230;28;20233;-66
2022/12/15 07:59:23;;;;;;;15.93;8.37;;;0.80;99.90;;;;;;4196497;28;20578;-65
2022/12/15 08:01:23;;;;;;;13.90;8.77;;;0.80;99.90;;;;;;4197938;28;20181;-65
2022/12/15 08:03:24;;;;;;;14.17;7.90;;;0.70;99.90;;;;;;4195878;28;20184;-65
2022/12/15 08:05:25;;;;;;;16.10;8.33;;;0.50;99.90;;;;;;4197550;28;20270;-66
2022/12/15 08:07:26;;;;;;;13.03;7.83;;;0.60;99.90;;;;;;4197525;28;20211;-66
2022/12/15 08:09:26;;;;;;;15.63;9.43;;;0.80;99.90;;;;;;4197481;28;20543;-65
2022/12/15 08:11:27;;;;;;;13.43;8.07;;;0.70;99.90;;;;;;4197308;28;20253;-65
2022/12/15 08:13:28;;;;;;;15.30;8.87;;;0.50;99.90;;;;;;4196807;28;20184;-66
2022/12/15 08:15:29;;;;;;;14.10;8.10;;;0.60;99.90;;;;;;4197400;28;20181;-65
2022/12/15 08:17:29;;;;;;;16.63;9.30;;;0.70;99.90;;;;;;4195711;28;20180;-65
2022/12/15 08:19:30;;;;;;;16.57;8.83;;;0.90;99.90;;;;;;4197214;28;20344;-66
2022/12/15 08:21:32;;;;;;;13.50;8.70;;;1.00;99.90;;;;;;4197454;28;20744;-66
2022/12/15 08:23:34;;;;;;;14.37;8.60;;;1.10;99.90;;;;;;4195445;28;20828;-66
2022/12/15 08:25:35;;;;;;;17.37;9.70;;;1.10;99.90;;;;;;4196224;28;21041;-66
2022/12/15 08:27:36;;;;;;;13.97;8.67;;;0.90;99.90;;;;;;4197157;28;20429;-66
2022/12/15 08:29:36;;;;;;;18.47;9.90;;;0.90;99.90;;;;;;4197309;28;20275;-66
2022/12/15 08:31:37;;;;;;;17.60;10.13;;;0.90;99.90;;;;;;4197126;28;20283;-66
2022/12/15 08:33:39;;;;;;;15.70;10.10;;;1.00;99.90;;;;;;4196418;28;20315;-65
2022/12/15 08:35:39;;;;;;;17.93;9.80;;;1.00;99.90;;;;;;4195866;28;20426;-66
2022/12/15 08:37:41;;;;;;;16.00;9.57;;;1.00;99.90;;;;;;4197206;28;20429;-66
2022/12/15 08:39:42;;;;;;;15.90;9.37;;;1.00;99.90;;;;;;4196937;28;20212;-66
2022/12/15 08:41:43;;;;;;;17.77;10.17;;;1.00;99.90;;;;;;4197344;28;20776;-66
2022/12/15 08:43:46;;;;;;;17.27;10.10;;;0.80;99.90;;;;;;4196459;28;20205;-66
2022/12/15 08:45:48;;;;;;;17.40;10.47;;;0.80;99.90;;;;;;4195627;28;20455;-65
2022/12/15 08:47:48;;;;;;;16.27;9.67;;;0.80;99.90;;;;;;4196131;28;20826;-65
2022/12/15 08:49:49;;;;;;;22.37;11.20;;;0.70;99.90;;;;;;4196933;28;20464;-65
2022/12/15 08:51:50;;;;;;;17.83;10.60;;;0.70;99.90;;;;;;4195841;28;20179;-65
2022/12/15 08:53:51;;;;;;;16.00;9.20;;;0.90;99.90;;;;;;4196764;28;20231;-66
2022/12/15 08:55:52;;;;;;;18.67;10.90;;;1.00;99.90;;;;;;4195909;28;20183;-65
2022/12/15 08:57:56;;;;;;;19.33;11.17;;;1.00;99.90;;;;;;4183767;28;20771;-66
2022/12/15 08:59:56;;;;;;;21.70;11.30;;;1.10;99.90;;;;;;4180457;28;20194;-65
2022/12/15 09:01:58;;;;;;;21.80;12.57;;;1.20;99.90;;;;;;4180273;28;20427;-66
2022/12/15 09:04:00;;;;;;;23.47;12.80;;;1.20;99.90;;;;;;4178506;28;20212;-66
2022/12/15 09:06:06;;;;;;;21.63;12.33;;;1.20;99.90;;;;;;4180325;28;20421;-66
2022/12/15 09:08:07;;;;;;;21.50;12.80;;;1.30;99.90;;;;;;4180409;28;20460;-66
2022/12/15 09:10:08;;;;;;;19.80;10.10;;;1.20;99.90;;;;;;4180241;28;20435;-66
2022/12/15 09:12:11;;;;;;;20.93;11.53;;;0.90;99.90;;;;;;4179637;28;20199;-66
2022/12/15 09:14:11;;;;;;;20.97;11.73;;;0.90;99.90;;;;;;4180091;28;20214;-66
2022/12/15 09:16:14;;;;;;;21.17;12.00;;;1.10;99.90;;;;;;4180184;28;20948;-66
2022/12/15 09:18:15;;;;;;;21.87;12.40;;;1.20;99.90;;;;;;4178550;28;20267;-66
2022/12/15 09:20:16;;;;;;;19.07;11.37;;;1.30;99.90;;;;;;4180022;28;20468;-66
2022/12/15 09:22:17;;;;;;;20.93;11.03;;;1.50;99.90;;;;;;4179506;28;20180;-66
2022/12/15 09:24:17;;;;;;;20.53;10.80;;;1.60;99.90;;;;;;4179251;28;20455;-65
2022/12/15 09:26:22;;;;;;;20.43;11.83;;;1.50;99.90;;;;;;4180603;28;20184;-66
2022/12/15 09:28:22;;;;;;;20.90;11.03;;;1.60;99.90;;;;;;4179337;28;20195;-65
2022/12/15 09:30:23;;;;;;;20.30;11.00;;;1.60;99.90;;;;;;4181039;28;20422;-66
2022/12/15 09:32:24;;;;;;;17.87;10.53;;;1.60;99.80;;;;;;4179088;28;20239;-65
2022/12/15 09:34:24;;;;;;;19.10;10.53;;;1.40;99.90;;;;;;4178709;28;20208;-66
2022/12/15 09:36:26;;;;;;;19.63;11.03;;;1.40;99.90;;;;;;4178441;28;20190;-66
2022/12/15 09:38:27;;;;;;;22.17;11.73;;;1.30;99.90;;;;;;4178346;28;20212;-66
2022/12/15 09:40:28;;;;;;;19.27;9.97;;;1.30;99.90;;;;;;4179549;28;20437;-67
2022/12/15 09:42:30;;;;;;;23.53;12.07;;;1.30;99.90;;;;;;4179002;28;20657;-66
2022/12/15 09:44:31;;;;;;;22.13;11.73;;;1.30;99.90;;;;;;4179544;28;20443;-66
2022/12/15 09:46:47;;;;;;;26.93;13.63;;;1.40;99.90;;;;;;4179811;28;20528;-66
2022/12/15 09:48:49;;;;;;;22.67;11.90;;;1.40;99.90;;;;;;4179565;28;20451;-66
2022/12/15 09:50:52;;;;;;;21.07;11.13;;;1.30;99.90;;;;;;4178020;28;20423;-66
2022/12/15 09:52:59;;;;;;;20.90;11.53;;;1.30;99.90;;;;;;4178859;28;20426;-66
2022/12/15 09:55:02;;;;;;;18.20;10.87;;;1.30;99.90;;;;;;4179619;28;20952;-66
2022/12/15 09:57:51;;;;;;;22.03;11.80;;;1.50;99.90;;;;;;4179389;28;20455;-66
2022/12/15 10:00:06;;;;;;;19.60;10.03;;;1.40;99.90;;;;;;4179709;28;20493;-66
2022/12/15 10:02:27;;;;;;;21.90;12.40;;;1.20;99.90;;;;;;4177849;28;20419;-65
2022/12/15 10:04:50;;;;;;;24.80;13.80;;;1.30;99.90;;;;;;4178570;28;20833;-66
2022/12/15 10:07:05;;;;;;;21.53;11.43;;;1.30;99.90;;;;;;4179617;28;21259;-66
2022/12/15 10:09:20;;;;;;;22.50;10.57;;;1.30;99.90;;;;;;4178067;28;20906;-66
2022/12/15 10:11:47;;;;;;;19.40;10.87;;;1.30;99.90;;;;;;4177912;28;20435;-66
2022/12/15 10:14:10;;;;;;;20.03;11.03;;;1.40;99.90;;;;;;4177138;28;20464;-66
2022/12/15 10:16:47;;;;;;;21.10;11.90;;;1.40;99.90;;;;;;4179256;28;20408;-66
2022/12/15 10:19:13;;;;;;;15.87;9.33;;;1.30;99.90;;;;;;4178813;28;20488;-66
2022/12/15 10:21:14;;;;;;;19.60;10.30;;;1.40;99.90;;;;;;4179181;28;20415;-66
2022/12/15 10:23:16;;;;;;;22.00;11.27;;;1.40;99.90;;;;;;4185540;28;21026;-66
2022/12/15 10:25:30;;;;;;;20.27;11.70;;;1.30;99.90;;;;;;4194470;28;20237;-66
2022/12/15 10:27:52;;;;;;;17.23;10.70;;;1.20;99.90;;;;;;4177646;28;20485;-66
2022/12/15 10:30:10;;;;;;;17.77;12.10;;;1.20;99.90;;;;;;4195580;28;20411;-66
2022/12/15 10:32:19;;;;;;;23.20;13.17;;;1.20;99.90;;;;;;4194951;28;20406;-66
2022/12/15 10:34:42;;;;;;;24.30;12.20;;;1.20;99.90;;;;;;4194061;28;20442;-66
2022/12/15 10:36:50;;;;;;;28.27;14.70;;;1.40;99.90;;;;;;4195371;28;20501;-66
2022/12/15 10:38:51;;;;;;;26.67;14.20;;;1.60;99.90;;;;;;4195322;28;20550;-66
2022/12/15 10:41:00;;;;;;;27.30;13.33;;;1.70;99.90;;;;;;4195328;28;20438;-67
2022/12/15 10:43:24;;;;;;;24.63;14.23;;;1.90;99.90;;;;;;4193629;28;20199;-67
2022/12/15 10:45:37;;;;;;;21.83;12.33;;;2.10;99.70;;;;;;4194104;28;20491;-67
2022/12/15 10:47:38;;;;;;;21.97;12.20;;;2.20;98.90;;;;;;4195276;28;20446;-66
2022/12/15 10:49:39;;;;;;;23.13;11.83;;;2.30;98.70;;;;;;4195514;28;20540;-66
2022/12/15 10:51:49;;;;;;;23.07;12.07;;;2.20;99.00;;;;;;4195349;28;20184;-67
2022/12/15 10:54:03;;;;;;;24.47;12.43;;;2.20;99.40;;;;;;4193642;28;20685;-66
2022/12/15 10:56:07;;;;;;;26.53;13.87;;;2.20;99.30;;;;;;4186004;28;20432;-65
2022/12/15 10:58:21;;;;;;;22.23;11.73;;;2.10;99.60;;;;;;4178669;28;20528;-66
2022/12/15 11:00:29;;;;;;;25.83;13.33;;;2.10;99.90;;;;;;4177544;28;20432;-66
2022/12/15 11:02:32;;;;;;;26.23;12.33;;;2.20;99.90;;;;;;4178125;28;20816;-65
2022/12/15 11:04:33;;;;;;;20.20;10.80;;;2.10;99.50;;;;;;4177223;28;20506;-66
2022/12/15 11:06:36;;;;;;;22.23;11.93;;;2.40;99.40;;;;;;4178621;28;20441;-66
2022/12/15 11:08:37;;;;;;;27.50;14.83;;;2.40;99.10;;;;;;4178355;28;20201;-66
2022/12/15 11:13:22;;;;;;;27.47;13.67;;;2.30;99.40;;;;;;4176898;28;20251;-66
2022/12/15 11:15:23;;;;;;;24.77;11.30;;;2.20;99.30;;;;;;4178333;28;20422;-66
2022/12/15 11:17:24;;;;;;;23.47;12.93;;;2.10;99.90;;;;;;4178393;28;20971;-66
2022/12/15 11:19:34;;;;;;;25.07;12.00;;;2.30;99.90;;;;;;4178321;28;20218;-66
2022/12/15 11:21:43;;;;;;;26.90;12.53;;;2.30;99.50;;;;;;4178462;28;20207;-65
2022/12/15 11:24:15;;;;;;;26.20;13.63;;;2.30;99.80;;;;;;4176465;28;20856;-65
2022/12/15 11:26:52;;;;;;;27.97;13.23;;;2.30;99.20;;;;;;4177173;28;20417;-65
2022/12/15 11:29:00;;;;;;;24.53;13.07;;;2.00;99.90;;;;;;4178475;28;20412;-66
2022/12/15 11:31:27;;;;;;;28.63;13.40;;;2.00;99.90;;;;;;4177032;28;20418;-65
2022/12/15 11:33:28;;;;;;;28.60;12.60;;;2.10;99.90;;;;;;4177838;28;20419;-66
2022/12/15 11:36:01;;;;;;;28.10;12.50;;;2.00;99.90;;;;;;4178404;28;20513;-65
2022/12/15 11:38:10;;;;;;;27.80;14.07;;;2.10;99.90;;;;;;4178313;28;20222;-66
2022/12/15 11:40:39;;;;;;;27.60;14.33;;;2.20;99.40;;;;;;4177072;28;20991;-66
2022/12/15 11:42:52;;;;;;;29.43;13.33;;;2.30;98.80;;;;;;4177741;28;20472;-66
2022/12/15 11:44:58;;;;;;;31.63;15.30;;;2.30;98.50;;;;;;4178473;28;20441;-67
2022/12/15 11:47:28;;;;;;;38.13;16.03;;;2.00;98.80;;;;;;4178360;28;20925;-66
2022/12/15 11:49:31;;;;;;;37.50;14.70;;;1.90;99.10;;;;;;4178347;28;20470;-66
2022/12/15 11:51:57;;;;;;;33.17;14.07;;;1.80;99.40;;;;;;4178182;28;20426;-66
2022/12/15 11:54:27;;;;;;;34.30;15.80;;;1.60;99.90;;;;;;4176282;28;20535;-66
2022/12/15 11:57:34;;;;;;;40.63;16.13;;;1.50;99.90;;;;;;4177126;28;20925;-67
2022/12/15 12:00:18;;;;;;;51.00;21.03;;;1.70;99.90;;;;;;4163602;28;20483;-66
2022/12/15 12:03:07;;;;;;;27.63;13.27;;;1.80;99.90;;;;;;4171690;28;20455;-66
2022/12/15 12:05:47;;;;;;;42.17;14.97;;;1.90;99.70;;;;;;4176997;28;20530;-66
2022/12/15 12:08:46;;;;;;;31.27;13.60;;;1.70;99.60;;;;;;4177723;28;21102;-66
2022/12/15 12:11:23;;;;;;;30.60;13.57;;;1.40;99.90;;;;;;4157032;28;20529;-66
2022/12/15 12:13:53;;;;;;;27.07;14.37;;;1.40;99.90;;;;;;4176502;28;20417;-66
2022/12/15 12:16:20;;;;;;;30.63;15.30;;;1.70;99.90;;;;;;4177072;28;20794;-66
2022/12/15 12:18:30;;;;;;;33.13;14.67;;;1.60;99.80;;;;;;4177975;28;20889;-66
2022/12/15 12:20:44;;;;;;;28.83;13.40;;;1.50;99.90;;;;;;4177850;28;20409;-66
2022/12/15 12:23:03;;;;;;;37.57;15.73;;;1.30;99.90;;;;;;4180796;28;20451;-66
2022/12/15 12:25:18;;;;;;;30.53;14.87;;;1.20;99.90;;;;;;4197634;28;20434;-66
2022/12/15 12:27:40;;;;;;;34.67;14.67;;;1.20;99.90;;;;;;4196299;28;20983;-66
2022/12/15 12:29:48;;;;;;;29.43;13.80;;;1.30;99.90;;;;;;4196288;28;21070;-66
2022/12/15 12:32:14;;;;;;;32.27;14.80;;;1.40;99.90;;;;;;4196399;28;20917;-66
2022/12/15 12:34:28;;;;;;;42.23;13.87;;;1.50;99.90;;;;;;4196113;28;20477;-65
2022/12/15 12:36:29;;;;;;;45.70;18.93;;;1.40;99.90;;;;;;4196135;28;20417;-65
2022/12/15 12:38:38;;;;;;;33.20;15.50;;;1.40;99.90;;;;;;4197235;28;20470;-65
2022/12/15 12:41:03;;;;;;;43.70;18.60;;;1.50;99.90;;;;;;4196270;28;20819;-65
2022/12/15 12:43:04;;;;;;;35.10;16.70;;;1.50;99.90;;;;;;4196811;28;20402;-65
2022/12/15 12:45:12;;;;;;;41.43;16.17;;;1.40;99.90;;;;;;4196080;28;20491;-65
2022/12/15 12:47:28;;;;;;;40.23;17.50;;;1.40;99.90;;;;;;4196201;28;20418;-66
2022/12/15 12:49:44;;;;;;;37.83;15.70;;;1.40;99.90;;;;;;4195961;28;20418;-66
2022/12/15 12:51:54;;;;;;;38.40;15.47;;;1.50;99.90;;;;;;4196046;28;20804;-65
2022/12/15 12:53:57;;;;;;;34.00;15.60;;;1.50;99.90;;;;;;4196473;28;20793;-66
2022/12/15 12:55:57;;;;;;;47.77;17.40;;;1.30;99.90;;;;;;4195855;28;20482;-65
2022/12/15 12:57:58;;;;;;;37.20;15.90;;;1.20;99.90;;;;;;4195643;28;21045;-65
2022/12/15 13:00:10;;;;;;;52.83;19.60;;;1.30;99.90;;;;;;4195678;28;20181;-66
2022/12/15 13:02:20;;;;;;;44.57;21.00;;;1.20;99.90;;;;;;4196416;28;20271;-66
2022/12/15 13:04:29;;;;;;;73.97;16.80;;;1.30;99.90;;;;;;4182567;28;20441;-66
2022/12/15 13:06:33;;;;;;;36.10;15.47;;;1.50;99.90;;;;;;4180177;28;20422;-66
2022/12/15 13:08:51;;;;;;;43.30;18.20;;;1.50;99.90;;;;;;4180296;28;20511;-66
2022/12/15 13:10:54;;;;;;;41.93;17.57;;;1.50;99.90;;;;;;4178847;28;20616;-66
2022/12/15 13:12:59;;;;;;;43.87;16.60;;;1.40;99.90;;;;;;4178255;28;20990;-66
2022/12/15 13:15:28;;;;;;;36.03;15.20;;;1.10;99.90;;;;;;4180219;28;20804;-66
2022/12/15 13:17:31;;;;;;;29.93;15.30;;;1.10;99.90;;;;;;4178708;28;20476;-66
2022/12/15 13:20:01;;;;;;;44.60;19.03;;;1.30;99.90;;;;;;4178831;28;20618;-65
2022/12/15 13:22:02;;;;;;;31.57;15.77;;;1.40;99.90;;;;;;4179906;28;21151;-66
2022/12/15 13:24:03;;;;;;;30.07;14.13;;;1.20;99.90;;;;;;4179672;28;20445;-66